Time;durP1;ratioP1;P1;durP2;ratioP2;P2;SDS_P1;SDS_P2;PMS_P1;PMS_P2;Temp;Humidity;BMP_temperature;BMP_pressure;BME280_temperature;BME280_humidity;BME280_pressure;Samples;Min_cycle;Max_cycle;Signal;HPM_P1;HPM_P2
2021/06/24 05:05:48;;;;;;;33.85;6.72;;;;;;;34.65;38.99;100407.16;1842775;77;22754;-69
2021/06/24 05:08:17;;;;;;;34.08;7.25;;;;;;;34.73;38.72;100407.64;1816204;78;21537;-66
2021/06/24 05:10:45;;;;;;;27.77;6.37;;;;;;;34.88;38.05;100404.47;1812501;78;21211;-68
2021/06/24 05:13:12;;;;;;;30.00;7.33;;;;;;;34.88;37.81;100403.11;1808809;78;21596;-65
2021/06/24 05:15:44;;;;;;;26.20;7.67;;;;;;;34.83;37.84;100402.17;1810404;78;20891;-67
2021/06/24 05:18:16;;;;;;;29.37;7.60;;;;;;;34.77;37.86;100395.81;1814076;78;20942;-66
2021/06/24 05:20:46;;;;;;;26.62;7.45;;;;;;;34.84;37.84;100405.17;1817348;78;21611;-68
2021/06/24 05:23:16;;;;;;;22.05;6.83;;;;;;;34.93;37.55;100401.05;1806022;78;20977;-70
2021/06/24 05:25:44;;;;;;;27.17;7.45;;;;;;;34.95;37.54;100398.94;1792359;78;21464;-70
2021/06/24 05:28:12;;;;;;;26.23;7.05;;;;;;;35.04;37.23;100400.22;1816954;78;20904;-70
2021/06/24 05:30:39;;;;;;;35.50;6.97;;;;;;;35.18;36.84;100397.56;1745798;81;21713;-70
2021/06/24 05:33:06;;;;;;;22.95;6.97;;;;;;;35.27;36.83;100397.98;1756382;81;20934;-69
2021/06/24 05:35:33;;;;;;;23.80;6.40;;;;;;;35.41;36.68;100398.88;1757739;81;21125;-68
2021/06/24 05:38:00;;;;;;;26.00;7.28;;;;;;;35.54;36.20;100395.07;1757870;81;21508;-71
2021/06/24 05:40:30;;;;;;;41.98;7.92;;;;;;;35.60;36.48;100398.14;1757799;81;20937;-70
2021/06/24 05:42:59;;;;;;;29.82;6.90;;;;;;;35.65;36.49;100392.00;1756205;81;21618;-67
2021/06/24 05:45:28;;;;;;;22.37;6.30;;;;;;;35.78;36.48;100380.06;1763757;81;20978;-67
2021/06/24 05:47:56;;;;;;;20.97;5.83;;;;;;;35.86;36.41;100389.19;1747028;81;21147;-68
2021/06/24 05:50:24;;;;;;;25.75;6.80;;;;;;;36.04;36.51;100386.23;1750695;81;21492;-67
2021/06/24 05:52:57;;;;;;;30.23;6.50;;;;;;;36.31;36.27;100386.47;1752807;81;20958;-67
2021/06/24 05:58:12;;;;;;;23.65;6.67;;;;;;;36.78;34.72;100391.02;1771879;79;21044;-70
2021/06/24 06:00:41;;;;;;;20.45;6.30;;;;;;;36.84;34.08;100398.13;1773505;79;21067;-63
2021/06/24 06:03:08;;;;;;;23.07;6.50;;;;;;;36.97;33.60;100388.28;1770666;80;21457;-68
2021/06/24 06:05:35;;;;;;;28.20;5.72;;;;;;;37.13;33.61;100398.82;1782337;79;20975;-64
2021/06/24 06:08:04;;;;;;;22.95;6.42;;;;;;;37.31;33.62;100394.98;1806027;78;20942;-67
2021/06/24 06:10:34;;;;;;;21.95;6.10;;;;;;;37.50;33.67;100390.05;1812463;78;21187;-69
2021/06/24 06:13:01;;;;;;;20.08;6.17;;;;;;;37.64;33.59;100393.45;1803762;78;21123;-72
2021/06/24 06:15:29;;;;;;;24.95;6.80;;;;;;;37.75;33.68;100397.67;1813169;78;20958;-74
2021/06/24 06:17:56;;;;;;;25.62;6.00;;;;;;;37.91;33.43;100392.68;1805339;78;20971;-66
2021/06/24 06:20:25;;;;;;;18.60;6.45;;;;;;;38.04;33.36;100398.50;1810978;78;21500;-72
2021/06/24 06:22:52;;;;;;;29.82;6.47;;;;;;;38.09;32.65;100395.01;1809650;78;21545;-68
2021/06/24 06:25:19;;;;;;;24.85;6.17;;;;;;;38.02;32.70;100399.83;1803385;78;21128;-74
2021/06/24 06:27:46;;;;;;;22.80;6.92;;;;;;;37.86;32.65;100398.89;1787579;79;21017;-68
2021/06/24 06:30:16;;;;;;;18.40;5.72;;;;;;;37.87;32.99;100393.73;1743013;80;20992;-73
2021/06/24 06:32:43;;;;;;;18.12;5.42;;;;;;;38.02;32.58;100402.55;1777074;79;20903;-71
2021/06/24 06:35:11;;;;;;;25.35;5.92;;;;;;;38.08;32.40;100399.34;1774562;79;20961;-72
2021/06/24 06:37:38;;;;;;;13.45;5.35;;;;;;;38.13;32.94;100398.06;1772976;79;21097;-66
2021/06/24 06:40:06;;;;;;;17.27;5.65;;;;;;;38.31;32.90;100396.33;1811273;78;21568;-72
2021/06/24 06:42:33;;;;;;;18.73;5.37;;;;;;;38.46;32.57;100390.97;1809356;78;20946;-69
2021/06/24 06:45:00;;;;;;;20.50;5.95;;;;;;;38.54;31.63;100393.22;1809153;78;21009;-68
2021/06/24 06:47:27;;;;;;;17.27;5.90;;;;;;;38.53;31.69;100393.48;1806414;78;20931;-71
2021/06/24 06:49:55;;;;;;;18.25;5.37;;;;;;;38.48;32.09;100388.00;1744451;81;21681;-67
2021/06/24 06:52:24;;;;;;;22.75;5.62;;;;;;;38.54;31.70;100395.94;1809045;78;21473;-67
2021/06/24 06:54:51;;;;;;;18.90;5.50;;;;;;;38.44;31.87;100395.04;1744571;81;21018;-68
2021/06/24 06:57:18;;;;;;;17.40;5.45;;;;;;;38.24;31.85;100390.28;1807049;78;20934;-66
2021/06/24 06:59:46;;;;;;;18.67;5.45;;;;;;;38.05;32.02;100387.08;1814204;78;20940;-65
2021/06/24 07:02:13;;;;;;;17.35;5.30;;;;;;;37.84;32.77;100390.70;1812078;78;21486;-73
2021/06/24 07:04:42;;;;;;;19.17;5.35;;;;;;;37.88;33.42;100394.55;1743150;81;21006;-66
2021/06/24 07:07:09;;;;;;;14.20;5.75;;;;;;;38.06;32.83;100395.52;1771849;80;20990;-67
2021/06/24 07:09:37;;;;;;;17.80;5.28;;;;;;;38.16;32.20;100398.37;1775106;79;20938;-66
2021/06/24 07:12:06;;;;;;;15.98;5.53;;;;;;;38.23;32.20;100392.72;1807551;78;21583;-67
2021/06/24 07:14:34;;;;;;;17.05;5.08;;;;;;;38.35;32.19;100394.73;1739893;81;21126;-72
2021/06/24 07:17:04;;;;;;;16.82;5.47;;;;;;;38.51;31.97;100390.20;1750346;81;21029;-72
2021/06/24 07:19:32;;;;;;;16.62;5.10;;;;;;;38.49;31.88;100393.17;1779447;79;20923;-71
2021/06/24 07:22:00;;;;;;;18.00;5.17;;;;;;;38.45;32.10;100395.31;1806176;78;20919;-70
2021/06/24 07:24:27;;;;;;;12.30;4.78;;;;;;;38.43;32.34;100396.94;1750260;80;20934;-72
2021/06/24 07:26:56;;;;;;;21.23;5.03;;;;;;;38.36;32.18;100403.17;1772318;80;21944;-74
2021/06/24 07:29:24;;;;;;;16.73;5.25;;;;;;;38.37;31.89;100407.53;1808688;78;21009;-74
2021/06/24 07:31:51;;;;;;;13.88;4.70;;;;;;;38.59;31.67;100410.16;1810093;78;20975;-66
2021/06/24 07:34:19;;;;;;;11.28;4.35;;;;;;;38.78;31.48;100407.30;1810877;78;21019;-68
2021/06/24 07:36:46;;;;;;;15.10;5.30;;;;;;;38.88;30.47;100410.06;1810300;78;21552;-67
2021/06/24 07:39:13;;;;;;;12.50;4.78;;;;;;;38.88;30.38;100407.34;1752019;81;21113;-70
2021/06/24 07:41:41;;;;;;;16.55;5.20;;;;;;;38.94;30.13;100410.37;1771191;80;20958;-67
2021/06/24 07:44:08;;;;;;;18.75;5.30;;;;;;;38.99;30.47;100408.22;1810541;78;21040;-67
2021/06/24 07:46:36;;;;;;;17.12;5.33;;;;;;;39.06;31.26;100412.10;1811430;78;22458;-66
2021/06/24 07:49:03;;;;;;;13.48;4.75;;;;;;;39.01;30.15;100408.77;1811805;78;21545;-66
2021/06/24 07:51:31;;;;;;;12.40;4.60;;;;;;;38.77;30.29;100413.83;1800875;78;21137;-66
2021/06/24 07:53:58;;;;;;;20.77;4.78;;;;;;;38.49;30.39;100408.14;1807502;78;20989;-65
2021/06/24 07:56:25;;;;;;;10.15;3.90;;;;;;;38.23;31.15;100402.23;1807984;78;20971;-66
2021/06/24 07:58:53;;;;;;;16.42;4.87;;;;;;;38.22;31.15;100400.59;1810599;78;20913;-69
2021/06/24 08:01:21;;;;;;;15.30;4.50;;;;;;;38.28;30.81;100400.38;1805290;78;21062;-69
2021/06/24 08:03:48;;;;;;;17.73;5.17;;;;;;;38.33;30.66;100405.87;1740843;81;21026;-66
2021/06/24 08:06:16;;;;;;;20.45;4.62;;;;;;;38.31;30.61;100399.86;1761489;80;20932;-72
2021/06/24 08:08:44;;;;;;;12.28;3.95;;;;;;;38.29;30.50;100398.48;1763871;81;20978;-72
2021/06/24 08:11:11;;;;;;;14.87;4.37;;;;;;;38.23;30.27;100395.44;1744833;81;21083;-71
2021/06/24 08:13:39;;;;;;;15.20;4.83;;;;;;;38.18;30.78;100396.21;1755511;81;21529;-72
2021/06/24 08:16:06;;;;;;;14.90;4.25;;;;;;;38.27;31.42;100394.66;1752804;81;21053;-71
2021/06/24 08:18:33;;;;;;;13.72;4.75;;;;;;;38.49;30.56;100390.45;1753536;81;20943;-69
2021/06/24 08:21:01;;;;;;;11.73;4.10;;;;;;;38.60;30.06;100397.65;1740122;81;21025;-67
2021/06/24 08:23:28;;;;;;;12.25;4.55;;;;;;;38.59;29.13;100391.11;1757107;81;21461;-71
2021/06/24 08:25:56;;;;;;;19.40;4.75;;;;;;;38.54;28.74;100397.84;1763125;81;21009;-65
2021/06/24 08:28:23;;;;;;;16.50;4.95;;;;;;;38.41;27.88;100396.37;1758717;81;21142;-70
2021/06/24 08:30:52;;;;;;;14.75;4.75;;;;;;;38.21;28.26;100397.59;1750716;81;22141;-70
2021/06/24 08:33:21;;;;;;;16.87;4.78;;;;;;;38.13;28.91;100397.52;1748214;81;22039;-69
2021/06/24 08:35:48;;;;;;;12.30;3.80;;;;;;;38.14;28.75;100396.45;1756260;81;21033;-70
2021/06/24 08:38:15;;;;;;;13.00;4.03;;;;;;;38.04;29.12;100391.70;1759607;81;20942;-69
2021/06/24 08:40:43;;;;;;;17.27;4.25;;;;;;;37.93;29.91;100398.69;1768282;80;21785;-66
2021/06/24 08:43:10;;;;;;;11.33;3.80;;;;;;;37.94;29.49;100396.25;1778438;78;21138;-67
2021/06/24 08:45:39;;;;;;;16.50;4.35;;;;;;;38.02;28.78;100397.11;1752384;80;21565;-68
2021/06/24 08:48:16;;;;;;;22.95;4.40;;;;;;;38.11;27.67;100393.39;1749322;80;21044;-66
2021/06/24 08:50:52;;;;;;;15.68;4.40;;;;;;;38.18;28.33;100397.57;1694071;84;21043;-70
2021/06/24 08:53:18;;;;;;;;;;;;;;;38.25;27.86;100391.38;1768584;80;21524;-69
2021/06/24 08:55:50;;;;;;;20.25;4.45;;;;;;;38.28;27.72;100389.50;1763515;80;20155;-71
2021/06/24 08:58:16;;;;;;;18.65;4.87;;;;;;;38.27;27.19;100389.77;1770666;78;22223;-71
2021/06/24 09:00:43;;;;;;;19.37;4.37;;;;;;;38.19;27.09;100387.52;1765456;80;21552;-71
2021/06/24 09:03:27;;;;;;;16.90;3.90;;;;;;;38.13;27.86;100388.55;1751959;80;21032;-71
2021/06/24 09:06:02;;;;;;;15.23;4.55;;;;;;;38.12;27.41;100386.36;1788105;79;21358;-67
2021/06/24 09:08:40;;;;;;;10.37;3.73;;;;;;;38.16;27.22;100381.23;1801334;79;21013;-72
2021/06/24 09:11:19;;;;;;;15.05;4.42;;;;;;;38.14;27.44;100383.39;1806437;79;20969;-71
2021/06/24 09:14:10;;;;;;;21.50;4.72;;;;;;;37.93;28.06;100379.11;1805799;79;21043;-71
2021/06/24 09:16:40;;;;;;;18.60;4.58;;;;;;;37.71;28.27;100382.41;1763985;79;21028;-73
2021/06/24 09:19:23;;;;;;;14.33;4.12;;;;;;;37.55;28.64;100388.22;1772293;79;21546;-69
2021/06/24 09:22:04;;;;;;;23.45;5.10;;;;;;;37.49;28.44;100380.26;1750212;80;21008;-74
2021/06/24 09:24:35;;;;;;;28.23;5.22;;;;;;;37.41;28.54;100376.63;1759738;79;21544;-73
2021/06/24 09:27:14;;;;;;;19.00;4.30;;;;;;;37.26;28.58;100379.44;1757935;80;21525;-71
2021/06/24 09:29:41;;;;;;;17.52;4.10;;;;;;;37.12;28.63;100380.88;1765857;79;21018;-71
2021/06/24 09:32:09;;;;;;;14.95;4.20;;;;;;;36.91;28.25;100381.14;1732829;82;21049;-67
2021/06/24 09:34:39;;;;;;;20.80;4.62;;;;;;;36.73;28.36;100382.27;1750824;81;21564;-72
2021/06/24 09:37:07;;;;;;;23.65;4.80;;;;;;;36.63;27.29;100369.05;1715095;83;21002;-74
2021/06/24 09:39:44;;;;;;;18.82;4.12;;;;;;;36.48;27.74;100371.52;1752618;81;20982;-72
2021/06/24 09:42:12;;;;;;;17.05;4.17;;;;;;;36.30;27.31;100369.37;1750234;81;20982;-67
2021/06/24 09:44:42;;;;;;;19.03;4.57;;;;;;;36.12;27.40;100369.57;1752091;81;21111;-70
2021/06/24 09:47:26;;;;;;;16.23;3.80;;;;;;;36.00;27.35;100361.50;1746658;81;21173;-72
2021/06/24 09:50:03;;;;;;;14.45;3.77;;;;;;;35.96;27.78;100360.91;1742393;81;20950;-70
2021/06/24 09:52:30;;;;;;;25.35;4.75;;;;;;;35.88;28.27;100354.53;1748746;81;20958;-71
2021/06/24 09:55:14;;;;;;;18.73;4.50;;;;;;;35.83;27.84;100365.28;1748863;81;21037;-67
2021/06/24 09:57:40;;;;;;;18.90;4.47;;;;;;;35.74;28.47;100352.09;1743991;81;21627;-68
2021/06/24 10:00:27;;;;;;;19.62;4.20;;;;;;;35.64;28.69;100357.31;1740811;81;21615;-67
2021/06/24 10:03:12;;;;;;;14.90;4.08;;;;;;;35.55;28.55;100347.95;1774585;79;20971;-68
2021/06/24 10:05:40;;;;;;;27.45;4.60;;;;;;;35.47;28.02;100351.05;1771602;80;20943;-67
2021/06/24 10:08:07;;;;;;;22.48;4.35;;;;;;;35.39;27.89;100349.55;1782513;80;20974;-67
2021/06/24 10:10:35;;;;;;;14.78;4.03;;;;;;;35.33;27.33;100344.27;1783768;80;21128;-68
2021/06/24 10:13:08;;;;;;;22.05;4.53;;;;;;;35.28;27.69;100344.95;1783399;80;20981;-67
2021/06/24 10:15:35;;;;;;;21.27;5.33;;;;;;;35.25;27.00;100350.84;1783701;80;20934;-69
2021/06/24 10:18:03;;;;;;;20.02;5.33;;;;;;;35.20;27.77;100352.09;1783806;80;20968;-66
2021/06/24 10:20:31;;;;;;;19.67;4.30;;;;;;;35.21;28.13;100346.14;1783664;80;20927;-67
2021/06/24 10:23:03;;;;;;;17.32;4.53;;;;;;;35.22;28.46;100349.97;1783645;80;21108;-67
2021/06/24 10:25:30;;;;;;;20.05;4.92;;;;;;;35.23;28.64;100348.91;1782633;80;21644;-67
2021/06/24 10:27:57;;;;;;;24.15;4.83;;;;;;;35.24;28.58;100347.84;1784304;80;21422;-70
2021/06/24 10:30:25;;;;;;;17.48;4.90;;;;;;;35.25;28.87;100350.02;1784019;80;21513;-68
2021/06/24 10:33:04;;;;;;;15.50;4.03;;;;;;;35.29;29.45;100355.25;1783629;80;21555;-67
2021/06/24 10:35:35;;;;;;;17.80;3.37;;;;;;;35.35;27.18;100356.50;1783935;80;21095;-68
2021/06/24 10:38:03;;;;;;;14.85;3.67;;;;;;;35.40;26.54;100339.53;1784118;80;21533;-67
2021/06/24 10:40:39;;;;;;;11.00;3.55;;;;;;;35.41;27.35;100342.00;1783816;80;20926;-66
2021/06/24 10:43:14;;;;;;;12.98;4.05;;;;;;;35.39;27.87;100344.12;1783770;80;20930;-67
2021/06/24 10:45:44;;;;;;;11.30;3.70;;;;;;;35.33;27.83;100345.62;1783844;80;20946;-66
2021/06/24 10:48:32;;;;;;;11.28;3.83;;;;;;;35.28;28.17;100340.06;1783813;80;21102;-70
2021/06/24 10:51:10;;;;;;;14.23;3.77;;;;;;;35.25;28.40;100347.31;1783808;80;20922;-69
2021/06/24 10:53:49;;;;;;;15.50;4.30;;;;;;;35.23;29.37;100345.37;1751209;82;20903;-71
2021/06/24 10:56:38;;;;;;;10.78;3.90;;;;;;;35.20;29.55;100348.56;1783958;80;20990;-67
2021/06/24 10:59:27;;;;;;;12.55;3.62;;;;;;;35.14;29.02;100349.55;1736265;82;20905;-70
2021/06/24 11:02:06;;;;;;;8.93;3.62;;;;;;;35.06;29.13;100348.85;1730548;82;21086;-66
2021/06/24 11:04:39;;;;;;;13.55;5.03;;;;;;;35.02;29.42;100347.69;1752585;80;21036;-67
2021/06/24 11:07:21;;;;;;;16.05;4.70;;;;;;;34.99;29.85;100340.04;1780085;79;21041;-70
2021/06/24 11:10:13;;;;;;;11.83;3.65;;;;;;;35.00;29.29;100348.45;1776296;79;20947;-70
2021/06/24 11:12:57;;;;;;;13.58;3.58;;;;;;;35.00;29.52;100349.80;1809310;78;21607;-70
2021/06/24 11:15:49;;;;;;;11.05;3.75;;;;;;;34.93;29.67;100340.98;1803498;78;21189;-70
2021/06/24 11:18:39;;;;;;;13.58;3.65;;;;;;;34.90;30.02;100339.28;1744811;82;20943;-70
2021/06/24 11:21:10;;;;;;;14.28;3.83;;;;;;;34.87;30.09;100341.94;1724469;81;20966;-70
2021/06/24 11:23:55;;;;;;;11.63;3.90;;;;;;;34.84;29.79;100340.23;1746477;81;21040;-70
2021/06/24 11:26:29;;;;;;;17.73;3.77;;;;;;;34.80;29.73;100337.17;1749331;81;20993;-66
2021/06/24 11:29:02;;;;;;;12.07;4.17;;;;;;;34.80;30.39;100336.36;1753179;81;20923;-70
2021/06/24 11:32:34;;;;;;;13.10;3.50;;;;;;;34.77;30.52;100334.95;1746088;81;21489;-71
2021/06/24 11:37:11;;;;;;;10.63;3.67;;;;;;;34.81;30.45;100332.59;1749085;81;21584;-69
2021/06/24 11:39:40;;;;;;;9.75;4.17;;;;;;;34.82;29.96;100325.59;1751286;81;20978;-68
2021/06/24 11:42:12;;;;;;;18.27;4.15;;;;;;;34.84;29.71;100334.30;1752996;81;21125;-66
2021/06/24 11:44:44;;;;;;;9.48;3.55;;;;;;;34.84;29.85;100328.87;1752384;81;21006;-68
2021/06/24 11:47:14;;;;;;;22.55;3.87;;;;;;;34.83;30.43;100323.70;1753226;81;21467;-69
2021/06/24 12:04:19;;;;;;;9.38;3.45;;;;;;;34.75;30.96;100316.24;1763510;80;21528;-68
2021/06/24 12:07:06;;;;;;;9.63;3.62;;;;;;;34.76;31.36;100313.83;1767399;80;21591;-74
2021/06/24 12:09:48;;;;;;;11.28;3.90;;;;;;;34.81;31.33;100311.77;1763343;80;21129;-67
2021/06/24 12:12:15;;;;;;;13.62;3.95;;;;;;;34.83;31.29;100304.23;1758446;79;20974;-66
2021/06/24 12:14:44;;;;;;;13.80;3.87;;;;;;;34.88;31.80;100304.87;1731003;81;20940;-66
2021/06/24 12:17:23;;;;;;;8.23;3.98;;;;;;;34.89;32.34;100302.46;1759341;79;20978;-64
2021/06/24 12:20:23;;;;;;;10.15;3.50;;;;;;;34.92;31.98;100300.10;1758517;79;22056;-69
2021/06/24 12:22:58;;;;;;;16.85;3.83;;;;;;;34.97;31.86;100304.80;1772753;79;21977;-65
2021/06/24 12:25:27;;;;;;;17.57;4.40;;;;;;;34.98;30.96;100294.27;1770653;79;20990;-65
2021/06/24 12:27:56;;;;;;;11.55;3.52;;;;;;;34.97;30.82;100292.62;1769621;79;20963;-65
2021/06/24 12:30:35;;;;;;;11.48;3.80;;;;;;;34.94;31.19;100291.22;1742059;82;20957;-73
2021/06/24 12:33:04;;;;;;;11.12;3.22;;;;;;;34.95;31.07;100284.74;1766764;81;21453;-67
2021/06/24 12:35:41;;;;;;;9.15;3.08;;;;;;;34.94;31.04;100287.16;1759534;81;21111;-68
2021/06/24 12:38:13;;;;;;;17.45;4.95;;;;;;;34.94;30.77;100287.69;1760094;81;20935;-65
2021/06/24 12:40:43;;;;;;;13.22;5.40;;;;;;;34.91;30.19;100271.40;1764473;79;20959;-67
2021/06/24 12:43:29;;;;;;;10.08;4.45;;;;;;;34.91;30.71;100279.52;1728557;81;21010;-71
2021/06/24 12:45:58;;;;;;;8.28;3.40;;;;;;;34.93;31.18;100273.86;1728653;82;21026;-75
2021/06/24 12:48:36;;;;;;;12.28;3.62;;;;;;;34.95;30.29;100277.98;1748024;80;21094;-72
2021/06/24 12:51:20;;;;;;;7.45;2.55;;;;;;;34.93;30.61;100276.04;1737463;81;28295;-66
2021/06/24 12:53:53;;;;;;;5.70;3.42;;;;;;;34.93;30.55;100270.63;1747142;81;20962;-65
2021/06/24 12:56:29;;;;;;;8.43;3.12;;;;;;;34.94;30.90;100274.98;1737757;82;21805;-63
2021/06/24 12:59:22;;;;;;;10.80;2.98;;;;;;;34.95;30.07;100268.50;1736830;82;21030;-70
2021/06/24 13:01:50;;;;;;;10.68;3.40;;;;;;;34.97;30.12;100270.97;1801429;79;21104;-71
2021/06/24 13:04:20;;;;;;;8.28;3.40;;;;;;;34.97;29.60;100277.20;1805227;79;21006;-65
2021/06/24 13:06:51;;;;;;;6.87;2.70;;;;;;;34.97;29.67;100269.09;1812372;79;20960;-65
2021/06/24 13:09:31;;;;;;;5.25;2.87;;;;;;;34.98;29.29;100271.27;1802690;79;20970;-65
2021/06/24 13:12:00;;;;;;;5.67;2.90;;;;;;;34.99;29.57;100271.02;1769659;80;20947;-66
2021/06/24 13:14:35;;;;;;;5.17;2.98;;;;;;;35.00;29.27;100265.08;1764625;80;20990;-66
2021/06/24 13:17:09;;;;;;;4.83;2.67;;;;;;;34.99;29.23;100272.91;1758678;80;20965;-65
2021/06/24 13:19:38;;;;;;;6.03;3.20;;;;;;;34.99;29.56;100272.38;1746542;80;21436;-65
2021/06/24 13:22:19;;;;;;;5.15;2.75;;;;;;;35.02;29.30;100271.08;1773518;80;21424;-66
2021/06/24 13:24:52;;;;;;;7.50;3.02;;;;;;;34.97;29.25;100255.55;1759015;80;20998;-66
2021/06/24 13:27:34;;;;;;;4.37;2.85;;;;;;;34.93;29.08;100254.39;1774458;79;21103;-66
2021/06/24 13:30:12;;;;;;;8.20;3.30;;;;;;;34.89;28.72;100259.98;1763273;80;21540;-66
2021/06/24 13:32:45;;;;;;;6.42;2.67;;;;;;;34.86;28.85;100263.17;1769390;80;21548;-66
2021/06/24 13:35:21;;;;;;;7.15;2.98;;;;;;;34.84;28.87;100261.77;1758563;80;20947;-67
2021/06/24 13:37:51;;;;;;;3.08;2.40;;;;;;;34.84;29.05;100261.77;1768260;79;20895;-64
2021/06/24 13:40:22;;;;;;;8.10;2.83;;;;;;;34.85;28.68;100264.77;1765630;80;22658;-65
2021/06/24 13:42:56;;;;;;;4.72;2.72;;;;;;;34.84;29.01;100263.94;1752735;81;20940;-68
2021/06/24 13:45:28;;;;;;;4.90;2.70;;;;;;;34.85;29.26;100259.35;1751835;80;20966;-66
2021/06/24 13:47:55;;;;;;;6.95;3.02;;;;;;;34.85;29.74;100258.82;1747911;79;21049;-67
2021/06/24 13:50:23;;;;;;;10.93;3.47;;;;;;;34.87;29.54;100254.52;1763031;79;20951;-66
2021/06/24 13:52:50;;;;;;;7.97;3.10;;;;;;;34.87;29.62;100254.00;1760731;79;21181;-67
2021/06/24 13:55:17;;;;;;;5.30;2.77;;;;;;;34.88;29.68;100249.41;1756442;80;20950;-65
2021/06/24 13:57:44;;;;;;;7.55;3.20;;;;;;;34.90;30.00;100246.75;1761230;80;20907;-67
2021/06/24 14:00:13;;;;;;;5.05;3.25;;;;;;;34.94;30.25;100248.45;1761770;80;20959;-65
2021/06/24 14:02:40;;;;;;;10.90;3.08;;;;;;;34.95;29.70;100248.21;1757938;80;21054;-71
2021/06/24 14:05:10;;;;;;;10.60;3.33;;;;;;;34.95;30.22;100247.39;1734101;82;21123;-65
2021/06/24 14:07:37;;;;;;;4.58;2.80;;;;;;;34.94;30.71;100249.27;1761192;80;20945;-68
2021/06/24 14:10:05;;;;;;;5.58;3.08;;;;;;;34.92;30.16;100243.27;1757421;81;20957;-67
2021/06/24 14:12:32;;;;;;;8.00;2.83;;;;;;;34.89;29.99;100245.64;1758066;81;20939;-71
2021/06/24 14:15:00;;;;;;;5.83;3.45;;;;;;;34.86;30.37;100236.64;1761715;80;20898;-68
2021/06/24 14:17:28;;;;;;;9.15;3.10;;;;;;;34.85;30.93;100243.12;1777732;80;21100;-68
2021/06/24 14:19:55;;;;;;;6.60;3.10;;;;;;;34.86;31.25;100233.94;1790641;79;20930;-70
2021/06/24 14:22:22;;;;;;;6.70;2.67;;;;;;;34.86;31.41;100238.00;1757445;81;21520;-69
2021/06/24 14:24:49;;;;;;;6.53;3.00;;;;;;;34.84;31.46;100233.36;1787297;80;21001;-72
2021/06/24 14:27:16;;;;;;;6.37;4.03;;;;;;;34.81;30.57;100230.59;1789784;80;20994;-70
2021/06/24 14:29:45;;;;;;;5.75;3.50;;;;;;;34.80;31.14;100224.89;1768676;80;21543;-70
2021/06/24 14:32:12;;;;;;;5.53;3.33;;;;;;;34.80;30.90;100229.48;1805390;79;20978;-73
2021/06/24 14:34:40;;;;;;;4.80;2.80;;;;;;;34.81;30.54;100225.19;1757206;81;20982;-72
2021/06/24 14:37:08;;;;;;;5.70;2.92;;;;;;;34.80;30.51;100229.48;1744595;81;20928;-72
2021/06/24 14:39:35;;;;;;;7.22;2.72;;;;;;;34.77;30.57;100227.55;1731766;83;20938;-72
2021/06/24 14:42:03;;;;;;;5.10;2.90;;;;;;;34.77;30.18;100228.08;1732408;83;21090;-72
2021/06/24 14:44:31;;;;;;;3.87;2.40;;;;;;;34.74;30.23;100229.38;1744159;81;20947;-70
2021/06/24 14:46:58;;;;;;;4.78;2.75;;;;;;;34.73;30.02;100225.56;1758196;81;20910;-72
2021/06/24 14:49:25;;;;;;;5.35;2.60;;;;;;;34.72;30.50;100234.73;1811194;79;20888;-71
2021/06/24 14:51:53;;;;;;;4.60;2.65;;;;;;;34.71;30.93;100231.20;1758335;81;20939;-72
2021/06/24 14:54:20;;;;;;;3.12;2.40;;;;;;;34.72;31.11;100233.38;1811189;79;21135;-72
2021/06/24 14:56:48;;;;;;;7.45;3.00;;;;;;;34.72;31.67;100236.09;1758149;81;20927;-73
2021/06/24 14:59:15;;;;;;;7.50;2.75;;;;;;;34.72;31.97;100238.27;1758358;81;20950;-72
2021/06/24 15:01:42;;;;;;;5.75;2.22;;;;;;;34.72;32.27;100241.50;1811282;79;20895;-76
2021/06/24 15:04:10;;;;;;;9.00;2.65;;;;;;;34.72;31.68;100232.03;1758232;81;20935;-70
2021/06/24 15:06:37;;;;;;;6.45;2.55;;;;;;;34.72;31.78;100230.67;1756904;81;21168;-71
2021/06/24 15:09:04;;;;;;;6.70;2.60;;;;;;;34.72;31.68;100226.09;1745808;82;20947;-69
2021/06/24 15:11:32;;;;;;;9.08;2.67;;;;;;;34.72;31.47;100227.44;1736509;82;20979;-68
2021/06/24 15:13:59;;;;;;;5.75;2.83;;;;;;;34.75;31.81;100214.79;1724893;82;20896;-72
2021/06/24 15:16:26;;;;;;;7.62;2.92;;;;;;;34.77;32.05;100218.08;1736585;82;20932;-71
2021/06/24 15:18:55;;;;;;;7.03;2.80;;;;;;;34.77;32.26;100213.20;1745740;82;20979;-66
2021/06/24 15:21:29;;;;;;;6.42;2.70;;;;;;;34.78;32.33;100212.14;1802196;79;20908;-67
2021/06/24 15:23:57;;;;;;;7.78;3.12;;;;;;;34.75;32.27;100209.91;1802713;79;20923;-68
2021/06/24 15:26:24;;;;;;;3.22;2.30;;;;;;;34.72;32.18;100209.03;1736735;82;21465;-65
2021/06/24 15:28:51;;;;;;;5.85;2.98;;;;;;;34.68;32.93;100208.69;1745832;82;20987;-67
2021/06/24 15:31:20;;;;;;;4.55;2.98;;;;;;;34.64;33.29;100202.11;1736412;82;20937;-66
2021/06/24 15:33:47;;;;;;;4.25;3.08;;;;;;;34.63;33.71;100211.81;1746062;82;21363;-66
2021/06/24 15:36:14;;;;;;;4.90;2.50;;;;;;;34.59;33.83;100209.30;1805214;79;20928;-66
2021/06/24 15:38:43;;;;;;;5.90;2.45;;;;;;;34.55;34.05;100210.83;1805590;79;20931;-68
2021/06/24 15:41:10;;;;;;;7.65;2.98;;;;;;;34.53;34.11;100208.37;1736529;82;20900;-71
2021/06/24 15:43:38;;;;;;;12.10;3.27;;;;;;;34.52;34.48;100209.95;1745876;82;21864;-66
2021/06/24 15:46:06;;;;;;;5.53;2.95;;;;;;;34.51;34.42;100211.02;1736498;82;20939;-66
2021/06/24 15:48:33;;;;;;;6.80;3.02;;;;;;;34.49;34.80;100214.48;1745841;82;20920;-66
2021/06/24 15:51:01;;;;;;;5.17;2.62;;;;;;;34.49;34.86;100210.43;1736834;82;20908;-66
2021/06/24 15:53:28;;;;;;;13.68;3.10;;;;;;;34.46;34.43;100203.61;1701206;82;20940;-67
2021/06/24 15:55:55;;;;;;;8.68;2.98;;;;;;;34.45;34.29;100208.73;1805104;79;21518;-68
2021/06/24 15:58:23;;;;;;;7.33;2.83;;;;;;;34.40;34.63;100206.73;1736388;82;20975;-67
2021/06/24 16:00:51;;;;;;;9.50;3.10;;;;;;;34.38;34.99;100208.89;1736708;82;20904;-65
2021/06/24 16:03:20;;;;;;;9.58;3.25;;;;;;;34.35;34.86;100207.19;1745747;82;20876;-66
2021/06/24 16:05:47;;;;;;;5.80;3.10;;;;;;;34.29;34.97;100206.22;1805095;79;20927;-65
2021/06/24 16:08:15;;;;;;;14.50;3.30;;;;;;;34.24;35.20;100200.70;1736374;82;21219;-66
2021/06/24 16:10:42;;;;;;;5.58;3.00;;;;;;;34.19;35.54;100194.35;1735379;82;20936;-66
2021/06/24 16:13:11;;;;;;;6.08;2.83;;;;;;;34.14;35.83;100201.81;1804923;79;20986;-67
2021/06/24 16:15:39;;;;;;;4.75;2.70;;;;;;;34.08;36.19;100200.88;1733450;82;20888;-67
2021/06/24 16:18:07;;;;;;;6.70;3.42;;;;;;;34.01;36.61;100205.57;1734624;82;20920;-65
2021/06/24 16:20:34;;;;;;;8.08;3.50;;;;;;;33.92;37.33;100202.95;1734864;82;20968;-66
2021/06/24 16:23:02;;;;;;;9.50;3.25;;;;;;;33.84;38.03;100211.41;1734542;82;20896;-66
2021/06/24 16:25:30;;;;;;;8.83;3.45;;;;;;;33.79;37.96;100213.98;1734613;82;20908;-66
2021/06/24 16:27:57;;;;;;;7.78;3.02;;;;;;;33.72;38.41;100222.69;1734803;82;20960;-66
2021/06/24 16:30:25;;;;;;;9.58;3.20;;;;;;;33.66;39.29;100220.91;1734672;82;21015;-69
2021/06/24 16:32:55;;;;;;;13.15;4.15;;;;;;;33.58;40.05;100212.64;1734582;82;21188;-66
2021/06/24 16:35:26;;;;;;;6.53;3.62;;;;;;;33.52;40.46;100213.56;1734854;82;20932;-70
2021/06/24 16:37:54;;;;;;;10.80;3.10;;;;;;;33.47;40.76;100218.83;1734675;82;21600;-70
2021/06/24 16:40:21;;;;;;;6.03;2.70;;;;;;;33.42;40.55;100225.45;1805123;79;21480;-69
2021/06/24 16:42:50;;;;;;;4.95;2.62;;;;;;;33.37;40.37;100219.39;1733579;82;20904;-68
2021/06/24 16:45:18;;;;;;;5.40;3.00;;;;;;;33.34;39.33;100228.47;1640384;78;22786;-69
2021/06/24 16:47:46;;;;;;;6.25;3.27;;;;;;;33.27;39.46;100229.05;1705053;84;21002;-69
2021/06/24 16:50:14;;;;;;;7.50;3.02;;;;;;;33.21;39.13;100224.58;1704932;83;21486;-70
2021/06/24 16:52:41;;;;;;;8.85;3.00;;;;;;;33.14;39.17;100226.87;1705004;83;20920;-69
2021/06/24 16:55:09;;;;;;;10.30;3.40;;;;;;;33.05;39.10;100226.88;1704851;83;20944;-69
2021/06/24 16:57:36;;;;;;;6.87;2.85;;;;;;;32.98;39.26;100222.62;1705004;83;21083;-68
2021/06/24 17:00:07;;;;;;;8.78;2.80;;;;;;;32.91;39.29;100218.66;1704744;83;20876;-69